Time;durP1;ratioP1;P1;durP2;ratioP2;P2;SDS_P1;SDS_P2;PMS_P1;PMS_P2;Temp;Humidity;BMP_temperature;BMP_pressure;BME280_temperature;BME280_humidity;BME280_pressure;Samples;Min_cycle;Max_cycle;Signal;HPM_P1;HPM_P2
2019/04/26 00:02:12;;;;;;;6.5;1.9;;;;;;;;;;;;;
2019/04/26 00:04:27;;;;;;;7.5;2.4;;;;;;;;;;;;;
2019/04/26 00:06:52;;;;;;;6.2;2.3;;;;;;;;;;;;;
2019/04/26 00:11:50;;;;;;;6.6;2;;;;;;;;;;;;;
2019/04/26 00:16:39;;;;;;;4.8;1.9;;;;;;;;;;;;;
2019/04/26 00:18:58;;;;;;;3.9;1.8;;;;;;;;;;;;;
2019/04/26 00:21:23;;;;;;;4.5;2;;;;;;;;;;;;;
2019/04/26 00:23:53;;;;;;;5.7;1.9;;;;;;;;;;;;;
2019/04/26 00:26:18;;;;;;;5;2;;;;;;;;;;;;;
2019/04/26 00:28:43;;;;;;;8.3;2.3;;;;;;;;;;;;;
2019/04/26 00:31:08;;;;;;;4;1.8;;;;;;;;;;;;;
2019/04/26 00:33:33;;;;;;;6.3;2.2;;;;;;;;;;;;;
2019/04/26 00:35:59;;;;;;;6.5;2.2;;;;;;;;;;;;;
2019/04/26 00:38:25;;;;;;;3.4;1.7;;;;;;;;;;;;;
2019/04/26 00:40:50;;;;;;;4.5;2.1;;;;;;;;;;;;;
2019/04/26 00:43:15;;;;;;;5.2;2;;;;;;;;;;;;;
2019/04/26 00:45:40;;;;;;;6.6;1.9;;;;;;;;;;;;;
2019/04/26 00:48:06;;;;;;;5.1;2;;;;;;;;;;;;;
2019/04/26 00:50:31;;;;;;;5.1;1.7;;;;;;;;;;;;;
2019/04/26 00:52:57;;;;;;;4.3;2;;;;;;;;;;;;;
2019/04/26 00:55:23;;;;;;;4.6;1.9;;;;;;;;;;;;;
2019/04/26 00:57:48;;;;;;;5.6;2.2;;;;;;;;;;;;;
2019/04/26 01:00:15;;;;;;;5.1;2.1;;;;;;;;;;;;;
2019/04/26 01:02:46;;;;;;;4.6;2.2;;;;;;;;;;;;;
2019/04/26 01:05:06;;;;;;;5.3;2.1;;;;;;;;;;;;;
2019/04/26 01:07:32;;;;;;;4.8;1.8;;;;;;;;;;;;;
2019/04/26 01:09:57;;;;;;;6.3;1.8;;;;;;;;;;;;;
2019/04/26 01:12:22;;;;;;;5;2;;;;;;;;;;;;;
2019/04/26 01:14:47;;;;;;;5.4;2.2;;;;;;;;;;;;;
2019/04/26 01:17:12;;;;;;;5.5;2;;;;;;;;;;;;;
2019/04/26 01:19:37;;;;;;;4.6;1.9;;;;;;;;;;;;;
2019/04/26 01:22:02;;;;;;;5.4;2;;;;;;;;;;;;;
2019/04/26 01:24:28;;;;;;;5;1.9;;;;;;;;;;;;;
2019/04/26 01:26:53;;;;;;;4;2;;;;;;;;;;;;;
2019/04/26 01:29:18;;;;;;;5.2;2.1;;;;;;;;;;;;;
2019/04/26 01:31:43;;;;;;;7.2;2.1;;;;;;;;;;;;;
2019/04/26 01:34:11;;;;;;;4.8;2;;;;;;;;;;;;;
2019/04/26 01:36:36;;;;;;;5.5;2.1;;;;;;;;;;;;;
2019/04/26 01:39:02;;;;;;;3.3;1.8;;;;;;;;;;;;;
2019/04/26 01:41:34;;;;;;;4.2;1.9;;;;;;;;;;;;;
2019/04/26 01:43:59;;;;;;;5.4;2;;;;;;;;;;;;;
2019/04/26 01:46:21;;;;;;;5.6;2.2;;;;;;;;;;;;;
2019/04/26 01:48:42;;;;;;;5.5;2.2;;;;;;;;;;;;;
2019/04/26 01:51:07;;;;;;;4.3;2;;;;;;;;;;;;;
2019/04/26 01:53:32;;;;;;;4.5;2.1;;;;;;;;;;;;;
2019/04/26 01:55:57;;;;;;;4.6;2.3;;;;;;;;;;;;;
2019/04/26 01:58:22;;;;;;;7.1;2.2;;;;;;;;;;;;;
2019/04/26 02:01:04;;;;;;;5.2;2.3;;;;;;;;;;;;;
2019/04/26 02:03:18;;;;;;;5.3;2.3;;;;;;;;;;;;;
2019/04/26 02:05:38;;;;;;;5.1;2.3;;;;;;;;;;;;;
2019/04/26 02:08:03;;;;;;;5;2.4;;;;;;;;;;;;;
2019/04/26 02:10:28;;;;;;;4.8;2.4;;;;;;;;;;;;;
2019/04/26 02:12:53;;;;;;;6.1;2.8;;;;;;;;;;;;;
2019/04/26 02:15:18;;;;;;;4.4;2.3;;;;;;;;;;;;;
2019/04/26 02:17:46;;;;;;;8.3;2.8;;;;;;;;;;;;;
2019/04/26 02:20:11;;;;;;;6.5;2.3;;;;;;;;;;;;;
2019/04/26 02:22:46;;;;;;;5.9;2.1;;;;;;;;;;;;;
2019/04/26 02:25:02;;;;;;;5.1;2;;;;;;;;;;;;;
2019/04/26 02:27:28;;;;;;;7.5;2.2;;;;;;;;;;;;;
2019/04/26 02:29:52;;;;;;;6.2;2.2;;;;;;;;;;;;;
2019/04/26 02:32:18;;;;;;;5.2;2.3;;;;;;;;;;;;;
2019/04/26 02:34:44;;;;;;;4.2;2.8;;;;;;;;;;;;;
2019/04/26 02:37:10;;;;;;;4.2;2.1;;;;;;;;;;;;;
2019/04/26 02:39:34;;;;;;;4.8;2.5;;;;;;;;;;;;;
2019/04/26 02:42:00;;;;;;;5.9;2.1;;;;;;;;;;;;;
2019/04/26 02:44:30;;;;;;;4;1.9;;;;;;;;;;;;;
2019/04/26 02:46:57;;;;;;;4.5;2.2;;;;;;;;;;;;;
2019/04/26 02:49:20;;;;;;;3.5;2;;;;;;;;;;;;;
2019/04/26 02:51:40;;;;;;;3.6;2;;;;;;;;;;;;;
2019/04/26 02:54:05;;;;;;;3.8;2.2;;;;;;;;;;;;;
2019/04/26 02:56:31;;;;;;;4.8;2.1;;;;;;;;;;;;;
2019/04/26 02:58:56;;;;;;;3.7;2.1;;;;;;;;;;;;;
2019/04/26 03:01:21;;;;;;;3;2;;;;;;;;;;;;;
2019/04/26 03:03:49;;;;;;;4;2;;;;;;;;;;;;;
2019/04/26 03:06:15;;;;;;;5.1;2.2;;;;;;;;;;;;;
2019/04/26 03:08:40;;;;;;;5;2;;;;;;;;;;;;;
2019/04/26 03:11:05;;;;;;;3.5;2.1;;;;;;;;;;;;;
2019/04/26 03:16:04;;;;;;;2.9;2.2;;;;;;;;;;;;;
2019/04/26 03:18:30;;;;;;;3.9;2.4;;;;;;;;;;;;;
2019/04/26 03:20:48;;;;;;;5.1;2;;;;;;;;;;;;;
2019/04/26 03:23:15;;;;;;;4.5;2.4;;;;;;;;;;;;;
2019/04/26 03:25:39;;;;;;;6;2.6;;;;;;;;;;;;;
2019/04/26 03:28:04;;;;;;;4.5;2.2;;;;;;;;;;;;;
2019/04/26 03:30:30;;;;;;;4.7;2.3;;;;;;;;;;;;;
2019/04/26 03:33:03;;;;;;;5.1;2.2;;;;;;;;;;;;;
2019/04/26 03:35:42;;;;;;;5.2;2.2;;;;;;;;;;;;;
2019/04/26 03:38:00;;;;;;;4.7;2.2;;;;;;;;;;;;;
2019/04/26 03:40:33;;;;;;;4.7;2.3;;;;;;;;;;;;;
2019/04/26 03:42:48;;;;;;;4.2;2.2;;;;;;;;;;;;;
2019/04/26 03:45:14;;;;;;;5.3;2.5;;;;;;;;;;;;;
2019/04/26 03:47:39;;;;;;;5.1;2.4;;;;;;;;;;;;;
2019/04/26 03:50:04;;;;;;;3.8;2.4;;;;;;;;;;;;;
2019/04/26 03:52:29;;;;;;;4.1;2.3;;;;;;;;;;;;;
2019/04/26 03:54:54;;;;;;;4.3;2.2;;;;;;;;;;;;;
2019/04/26 03:57:25;;;;;;;2.9;2;;;;;;;;;;;;;
2019/04/26 03:59:48;;;;;;;4.7;2.2;;;;;;;;;;;;;
2019/04/26 04:05:11;;;;;;;3.1;2.3;;;;;;;8.24;81.67188;953.4081;;;;
2019/04/26 04:07:31;;;;;;;2.9;2.6;;;;;;;8.16;82.03516;953.4464;;;;
2019/04/26 04:09:57;;;;;;;3.2;2.6;;;;;;;8.15;82.26074;953.5667;;;;
2019/04/26 04:12:22;;;;;;;4.3;2.4;;;;;;;8.14;81.85938;953.5889;;;;
2019/04/26 04:14:47;;;;;;;4.5;2.3;;;;;;;8.11;81.87695;953.4943;;;;
2019/04/26 04:17:41;;;;;;;3.7;2.5;;;;;;;8.11;81.73926;953.4983;;;;
2019/04/26 04:20:16;;;;;;;2.8;2.2;;;;;;;8.06;81.68359;953.5549;;;;
2019/04/26 04:22:26;;;;;;;5;2.3;;;;;;;8.01;81.82227;953.5849;;;;
2019/04/26 04:24:52;;;;;;;4.8;2.4;;;;;;;7.99;81.75977;953.5963;;;;
2019/04/26 04:27:18;;;;;;;2.4;2.2;;;;;;;7.95;81.65137;953.6464;;;;
2019/04/26 04:29:44;;;;;;;4.5;2.5;;;;;;;7.83;82.61426;953.7609;;;;
2019/04/26 04:32:11;;;;;;;3.3;2.4;;;;;;;7.9;81.91699;953.75;;;;
2019/04/26 04:34:36;;;;;;;3.7;2.7;;;;;;;7.87;82.02637;953.8286;;;;
2019/04/26 04:37:01;;;;;;;4.6;2.7;;;;;;;7.88;82.17578;953.9767;;;;
2019/04/26 04:39:27;;;;;;;3.1;2.4;;;;;;;7.91;81.97559;953.9609;;;;
2019/04/26 04:41:56;;;;;;;4.2;2.8;;;;;;;7.71;82.84375;954.0365;;;;
2019/04/26 04:44:23;;;;;;;4.5;2.9;;;;;;;7.87;82.19824;954.1089;;;;
2019/04/26 04:49:18;;;;;;;3.6;2.6;;;;;;;7.89;82.05273;954.0859;;;;
2019/04/26 04:51:37;;;;;;;3;2.5;;;;;;;7.93;81.625;954.1282;;;;
2019/04/26 04:54:08;;;;;;;3.2;2.6;;;;;;;7.93;81.6709;954.1537;;;;
2019/04/26 04:56:34;;;;;;;4;2.6;;;;;;;7.98;81.46191;954.1019;;;;
2019/04/26 04:58:59;;;;;;;3.5;2.8;;;;;;;8.01;81.12305;954.1243;;;;
2019/04/26 05:01:32;;;;;;;5.4;3;;;;;;;8.13;80.36621;954.2858;;;;
2019/04/26 05:03:52;;;;;;;3.3;2.9;;;;;;;8.15;80.40332;954.2628;;;;
2019/04/26 05:06:30;;;;;;;3.7;2.6;;;;;;;8.14;81.04492;954.3398;;;;
2019/04/26 05:08:48;;;;;;;3.5;2.7;;;;;;;8.29;79.69434;954.2277;;;;
2019/04/26 05:11:13;;;;;;;2.7;2.5;;;;;;;8.34;79.64648;954.222;;;;
2019/04/26 05:13:41;;;;;;;2.6;2.3;;;;;;;8.4;79.0957;954.3895;;;;
2019/04/26 05:16:12;;;;;;;4.2;3;;;;;;;8.42;78.99707;954.3666;;;;
2019/04/26 05:18:53;;;;;;;3.9;2.9;;;;;;;8.49;78.31934;954.2355;;;;
2019/04/26 05:21:18;;;;;;;3.2;2.9;;;;;;;8.47;78.67285;954.3273;;;;
2019/04/26 05:23:43;;;;;;;3.8;3;;;;;;;8.62;77.73535;954.4769;;;;
2019/04/26 05:28:34;;;;;;;4.3;3.1;;;;;;;8.69;77.59766;954.6403;;;;
2019/04/26 05:33:24;;;;;;;3.5;2.7;;;;;;;8.77;77.33594;954.6618;;;;
2019/04/26 05:35:53;;;;;;;3.3;2.8;;;;;;;8.75;77.20605;954.7103;;;;
2019/04/26 05:38:16;;;;;;;4.5;3.1;;;;;;;8.87;76.76855;954.7994;;;;
2019/04/26 05:40:42;;;;;;;5.4;2.7;;;;;;;8.94;77.03418;954.8002;;;;
2019/04/26 05:45:39;;;;;;;3.5;2.5;;;;;;;9.06;75.64063;955.0253;;;;
2019/04/26 05:48:09;;;;;;;3.5;2.9;;;;;;;8.97;75.90137;955.1803;;;;
2019/04/26 05:50:34;;;;;;;3.3;2.8;;;;;;;9.2;75.41113;955.1049;;;;
2019/04/26 05:52:55;;;;;;;3;2.6;;;;;;;9.3;74.60059;955.1581;;;;
2019/04/26 05:55:27;;;;;;;4.6;2.8;;;;;;;9.35;75.40332;955.0717;;;;
2019/04/26 05:57:45;;;;;;;3.7;2.9;;;;;;;9.23;75.17773;955.2285;;;;
2019/04/26 06:02:55;;;;;;;3.5;3.1;;;;;;;9.43;74.00195;955.0883;;;;
2019/04/26 06:08:23;;;;;;;3.1;2.6;;;;;;;9.44;73.95703;955.1983;;;;
2019/04/26 06:10:45;;;;;;;3.8;2.6;;;;;;;9.55;73.25098;955.2672;;;;
2019/04/26 06:13:08;;;;;;;3.8;2.6;;;;;;;9.56;73.59863;955.2658;;;;
2019/04/26 06:15:42;;;;;;;4;2.5;;;;;;;9.76;72.69922;955.2104;;;;
2019/04/26 06:18:04;;;;;;;7.6;2.5;;;;;;;9.62;73.02051;955.2128;;;;
2019/04/26 06:20:21;;;;;;;2.8;2.5;;;;;;;9.64;73.13867;955.2661;;;;
2019/04/26 06:22:46;;;;;;;3.8;2.6;;;;;;;9.71;73.22168;955.2498;;;;
2019/04/26 06:25:18;;;;;;;3.5;2.5;;;;;;;9.88;73.58301;955.1972;;;;
2019/04/26 06:30:02;;;;;;;4.4;2.5;;;;;;;9.85;72.57617;955.23;;;;
2019/04/26 06:32:33;;;;;;;4.7;2.4;;;;;;;9.83;72.19141;955.2238;;;;
2019/04/26 06:34:59;;;;;;;3.9;2.3;;;;;;;9.91;72.0918;955.5211;;;;
2019/04/26 06:37:37;;;;;;;3;2.5;;;;;;;10.01;71.81934;955.3786;;;;
2019/04/26 06:39:49;;;;;;;2.9;2.4;;;;;;;10.12;71.97559;955.4729;;;;
2019/04/26 06:42:14;;;;;;;3.8;2.4;;;;;;;10.27;70.47949;955.4013;;;;
2019/04/26 06:44:39;;;;;;;3;2.3;;;;;;;10.37;71.89063;955.4325;;;;
2019/04/26 06:49:42;;;;;;;3.6;2.4;;;;;;;10.47;69.57813;955.6467;;;;
2019/04/26 06:52:07;;;;;;;3.6;2.5;;;;;;;10.38;70.9707;955.474;;;;
2019/04/26 06:54:31;;;;;;;2.3;2.1;;;;;;;10.53;69.02148;955.3889;;;;
2019/04/26 06:57:00;;;;;;;3.4;2.4;;;;;;;10.59;69.58496;955.4127;;;;
2019/04/26 06:59:24;;;;;;;2.3;2.1;;;;;;;10.62;69.33594;955.4817;;;;
2019/04/26 07:01:50;;;;;;;3.5;2.3;;;;;;;10.68;68.45801;955.4919;;;;
2019/04/26 07:04:27;;;;;;;3.3;2.4;;;;;;;10.65;69.14551;955.5208;;;;
2019/04/26 07:06:50;;;;;;;2.5;2;;;;;;;10.94;68.75391;955.62;;;;
2019/04/26 07:09:17;;;;;;;4.3;2.4;;;;;;;10.93;67.78027;955.7151;;;;
2019/04/26 07:12:01;;;;;;;3.2;2.1;;;;;;;11.14;67.12109;955.683;;;;
2019/04/26 07:14:37;;;;;;;2.5;2.2;;;;;;;11.04;67.45215;955.7967;;;;
2019/04/26 07:17:07;;;;;;;3.4;2.1;;;;;;;11.43;67.03809;955.7394;;;;
2019/04/26 07:25:07;;;;;;;3.7;2;;;;;;;11.53;66.0127;955.6934;;;;
2019/04/26 07:27:19;;;;;;;3.9;2.1;;;;;;;11.58;64.85254;955.6575;;;;
2019/04/26 07:30:06;;;;;;;4.1;2.4;;;;;;;11.98;66.05762;955.6203;;;;
2019/04/26 07:32:52;;;;;;;6.1;2.5;;;;;;;11.84;65.5625;955.7094;;;;
2019/04/26 07:35:32;;;;;;;2.2;2;;;;;;;11.81;64.27344;955.7896;;;;
2019/04/26 07:37:57;;;;;;;2.4;2.2;;;;;;;11.66;65.54688;955.9051;;;;
2019/04/26 07:40:40;;;;;;;3.8;2.2;;;;;;;11.62;64.76465;955.9311;;;;
2019/04/26 07:43:02;;;;;;;3.4;2;;;;;;;11.81;64.03027;955.9345;;;;
2019/04/26 07:45:28;;;;;;;8.8;2.6;;;;;;;11.71;64.46582;956.0408;;;;
2019/04/26 07:48:11;;;;;;;2.9;2.2;;;;;;;11.71;64.11914;956.0703;;;;
2019/04/26 07:50:15;;;;;;;2.3;2.1;;;;;;;11.63;64.48926;956.0919;;;;
2019/04/26 07:52:49;;;;;;;3.3;2;;;;;;;11.59;64.56348;956.0715;;;;
2019/04/26 07:55:19;;;;;;;4.9;2;;;;;;;11.23;66.11816;956.0143;;;;
2019/04/26 07:58:05;;;;;;;4.2;2.2;;;;;;;11.45;65.19238;956.1978;;;;
2019/04/26 08:00:31;;;;;;;2.7;2.1;;;;;;;11.44;65.75684;956.0795;;;;
2019/04/26 08:03:33;;;;;;;4;2.3;;;;;;;11.21;66.06738;956.1875;;;;
2019/04/26 08:05:41;;;;;;;3.3;2.2;;;;;;;11.26;66.83789;956.2247;;;;
2019/04/26 08:08:21;;;;;;;3.1;2.2;;;;;;;10.99;67.04004;956.3062;;;;
2019/04/26 08:10:47;;;;;;;3;2.5;;;;;;;10.81;67.51953;956.3731;;;;
2019/04/26 08:13:14;;;;;;;2.9;2.6;;;;;;;10.71;67.83789;956.4016;;;;
2019/04/26 08:18:16;;;;;;;4.2;2.6;;;;;;;10.81;67.62402;956.4972;;;;
2019/04/26 08:20:53;;;;;;;4.6;2.7;;;;;;;10.85;67.66504;956.5048;;;;
2019/04/26 08:23:12;;;;;;;4.2;2.7;;;;;;;10.82;67.85449;956.5514;;;;
2019/04/26 08:25:43;;;;;;;3.4;2.9;;;;;;;10.7;67.83789;956.5641;;;;
2019/04/26 08:28:10;;;;;;;3.8;2.5;;;;;;;10.75;68.66504;956.6613;;;;
2019/04/26 08:30:35;;;;;;;4.6;2.6;;;;;;;10.54;69.57813;956.6548;;;;
2019/04/26 08:33:17;;;;;;;3.2;2.9;;;;;;;10.66;68.03906;956.7866;;;;
2019/04/26 08:35:51;;;;;;;4;2.8;;;;;;;10.65;68.20996;956.7364;;;;
2019/04/26 08:38:26;;;;;;;3.4;2.7;;;;;;;10.71;68.2998;956.6959;;;;
2019/04/26 08:40:51;;;;;;;3.2;2.9;;;;;;;10.92;68.50684;956.5994;;;;
2019/04/26 08:43:35;;;;;;;4.3;3.3;;;;;;;10.64;69.35156;956.7245;;;;
2019/04/26 08:45:53;;;;;;;5.8;3;;;;;;;10.69;68.75879;956.6898;;;;
2019/04/26 08:48:19;;;;;;;5.8;3;;;;;;;10.76;68.34277;956.7159;;;;
2019/04/26 08:50:40;;;;;;;4.7;3.4;;;;;;;10.57;68.84375;956.6984;;;;
2019/04/26 08:53:00;;;;;;;5.7;3.2;;;;;;;10.51;69.52637;956.7388;;;;
2019/04/26 08:55:30;;;;;;;4.1;3.7;;;;;;;10.43;69.49121;956.7815;;;;
2019/04/26 08:58:06;;;;;;;4.7;3.5;;;;;;;10.29;70.3916;956.9077;;;;
2019/04/26 09:00:41;;;;;;;5.3;3.4;;;;;;;10.44;68.99609;956.8406;;;;
2019/04/26 09:07:59;;;;;;;4.3;3.9;;;;;;;10.44;70.34668;956.9125;;;;
2019/04/26 09:10:25;;;;;;;3.8;3.4;;;;;;;10.42;69.13086;956.9623;;;;
2019/04/26 09:12:50;;;;;;;4.8;4;;;;;;;10.38;69.72559;956.996;;;;
2019/04/26 09:15:20;;;;;;;4.3;3.7;;;;;;;10.41;69.06152;957.0567;;;;
2019/04/26 09:17:45;;;;;;;5.3;3.7;;;;;;;10.46;69.13672;956.975;;;;
2019/04/26 09:20:10;;;;;;;5.2;3.5;;;;;;;10.43;69.44434;956.995;;;;
2019/04/26 09:22:46;;;;;;;4.4;3.8;;;;;;;10.68;68.75879;957.057;;;;
2019/04/26 09:25:15;;;;;;;4;3.4;;;;;;;10.64;68.41699;957.2067;;;;
2019/04/26 09:29:59;;;;;;;6;3.8;;;;;;;10.36;69.4668;957.2374;;;;
2019/04/26 09:32:22;;;;;;;8.9;4.2;;;;;;;10.3;69.84961;957.2609;;;;
2019/04/26 09:34:44;;;;;;;6.2;3.6;;;;;;;10.37;70.85254;957.2704;;;;
2019/04/26 09:37:10;;;;;;;5;3.3;;;;;;;10.48;69.45313;957.1642;;;;
2019/04/26 09:39:35;;;;;;;4.3;3.3;;;;;;;10.43;70.2627;957.0806;;;;
2019/04/26 09:42:15;;;;;;;4;3.5;;;;;;;10.42;69.74219;957.2399;;;;
2019/04/26 09:44:40;;;;;;;3.9;3.3;;;;;;;10.5;69.69824;957.1795;;;;
2019/04/26 09:49:30;;;;;;;5.1;3.5;;;;;;;10.37;70.42578;957.2024;;;;
2019/04/26 09:51:56;;;;;;;6.1;3.6;;;;;;;10.33;70.31641;957.2449;;;;
2019/04/26 09:54:20;;;;;;;4.9;3.5;;;;;;;10.21;71.08008;957.2834;;;;
2019/04/26 09:56:44;;;;;;;8.3;4.3;;;;;;;10.25;71.15625;957.2363;;;;
2019/04/26 09:59:10;;;;;;;6.3;4;;;;;;;10.26;71.60742;957.2994;;;;
2019/04/26 10:01:34;;;;;;;4.7;4.2;;;;;;;10.16;72.12207;957.2164;;;;
2019/04/26 10:04:00;;;;;;;7.2;4.6;;;;;;;9.95;73.80273;957.3495;;;;
2019/04/26 10:06:24;;;;;;;10;5.9;;;;;;;9.9;74.92285;957.2609;;;;
2019/04/26 10:08:50;;;;;;;9.1;6;;;;;;;9.78;77.90918;957.2996;;;;
2019/04/26 10:11:17;;;;;;;7.9;6.4;;;;;;;9.63;78.96582;957.2216;;;;
2019/04/26 10:18:31;;;;;;;9.9;8.9;;;;;;;9.14;84.12988;957.2559;;;;
2019/04/26 10:20:56;;;;;;;11.6;9.8;;;;;;;9.05;84.85938;957.2567;;;;
2019/04/26 10:23:21;;;;;;;11.1;10;;;;;;;9.05;85.33301;957.2224;;;;
2019/04/26 10:25:46;;;;;;;10.7;9.7;;;;;;;9.01;86.47363;957.1624;;;;
2019/04/26 10:28:11;;;;;;;11.3;10.2;;;;;;;8.91;85.39648;957.2708;;;;
2019/04/26 10:30:47;;;;;;;12.2;11.2;;;;;;;8.83;87.79395;957.4022;;;;
2019/04/26 10:33:22;;;;;;;12.3;11.2;;;;;;;8.75;87.82227;957.5256;;;;
2019/04/26 10:35:51;;;;;;;13.2;12;;;;;;;8.63;89.05273;957.6136;;;;
2019/04/26 10:38:30;;;;;;;12.8;11.7;;;;;;;8.69;89.31641;957.6586;;;;
2019/04/26 10:41:10;;;;;;;11.7;10.7;;;;;;;8.66;89.71289;957.6744;;;;
2019/04/26 10:43:51;;;;;;;12.7;11.6;;;;;;;8.53;90.51367;957.6834;;;;
2019/04/26 10:46:16;;;;;;;13.1;12;;;;;;;8.46;90.5332;957.6052;;;;
2019/04/26 10:48:45;;;;;;;13.2;12.1;;;;;;;8.4;90.74902;957.6111;;;;
2019/04/26 10:51:12;;;;;;;12.2;11.1;;;;;;;8.49;91.44629;957.6234;;;;
2019/04/26 10:53:51;;;;;;;13;11.9;;;;;;;8.49;92.1582;957.6705;;;;
2019/04/26 10:56:33;;;;;;;13.4;12.2;;;;;;;8.57;92.0625;957.7808;;;;
2019/04/26 10:58:35;;;;;;;11.4;10.4;;;;;;;8.3;91.76172;957.7905;;;;
2019/04/26 11:00:56;;;;;;;10.7;9.8;;;;;;;8.18;92.01074;957.8495;;;;
2019/04/26 11:03:20;;;;;;;7.7;7;;;;;;;7.94;91.88086;957.9239;;;;
2019/04/26 11:05:47;;;;;;;7.7;6.9;;;;;;;8;92.4082;957.8804;;;;
2019/04/26 11:08:12;;;;;;;7.7;7;;;;;;;8.01;93.30469;957.9086;;;;
2019/04/26 11:10:37;;;;;;;8.5;7.7;;;;;;;8.02;93.51563;957.9117;;;;
2019/04/26 11:13:12;;;;;;;7.2;6.6;;;;;;;8.06;92.26074;958.002;;;;
2019/04/26 11:15:39;;;;;;;6.7;6.1;;;;;;;8.07;92.56152;957.9964;;;;
2019/04/26 11:18:05;;;;;;;6.6;5.9;;;;;;;8.07;92.47168;958.0172;;;;
2019/04/26 11:20:30;;;;;;;6.2;5.6;;;;;;;8.07;92.42383;957.9542;;;;
2019/04/26 11:22:55;;;;;;;5.3;4.8;;;;;;;8.16;91.27246;958.0176;;;;
2019/04/26 11:25:21;;;;;;;6;5.5;;;;;;;8.17;91.42578;958.02;;;;
2019/04/26 11:27:45;;;;;;;5.2;4.7;;;;;;;8.05;91.51172;958.0367;;;;
2019/04/26 11:30:13;;;;;;;5.8;5.3;;;;;;;7.92;91.88672;958.02;;;;
2019/04/26 11:32:38;;;;;;;6.6;6;;;;;;;7.88;93.24316;958.074;;;;
2019/04/26 11:35:03;;;;;;;7.9;7.1;;;;;;;8.02;94.15723;958.0606;;;;
2019/04/26 11:37:28;;;;;;;7.9;6.8;;;;;;;8.11;93.69531;958.1664;;;;
2019/04/26 11:39:54;;;;;;;5.3;4.8;;;;;;;8.18;91.36816;958.1769;;;;
2019/04/26 11:42:18;;;;;;;5.3;4.4;;;;;;;8.23;90.38086;958.2227;;;;
2019/04/26 11:44:46;;;;;;;5.1;3.1;;;;;;;8.06;89.84082;958.2139;;;;
2019/04/26 11:47:15;;;;;;;2.9;2.2;;;;;;;7.99;88.12598;958.3359;;;;
2019/04/26 11:49:41;;;;;;;2;1.8;;;;;;;;;;;;;
2019/04/26 11:52:06;;;;;;;2.4;2.2;;;;;;;;;;;;;
2019/04/26 11:54:31;;;;;;;3.2;2.3;;;;;;;;;;;;;
2019/04/26 11:56:58;;;;;;;3;2;;;;;;;;;;;;;
2019/04/26 11:59:26;;;;;;;2.9;1.8;;;;;;;;;;;;;
2019/04/26 12:01:53;;;;;;;1.3;1.1;;;;;;;;;;;;;
2019/04/26 12:05:07;;;;;;;2.1;1.5;;;;;;;;;;;;;
2019/04/26 12:06:49;;;;;;;1.1;0.9;;;;;;;;;;;;;
2019/04/26 12:09:16;;;;;;;1.5;1.1;;;;;;;;;;;;;
2019/04/26 12:11:36;;;;;;;1.9;1.4;;;;;;;;;;;;;
2019/04/26 12:14:01;;;;;;;2.8;1.5;;;;;;;;;;;;;
2019/04/26 12:16:26;;;;;;;1.5;1.3;;;;;;;;;;;;;
2019/04/26 12:18:51;;;;;;;1.4;1;;;;;;;;;;;;;
2019/04/26 12:21:25;;;;;;;2.4;1.2;;;;;;;;;;;;;
2019/04/26 12:23:50;;;;;;;1.8;1.2;;;;;;;;;;;;;
2019/04/26 12:26:19;;;;;;;1.2;1;;;;;;;;;;;;;
2019/04/26 12:28:44;;;;;;;1;0.9;;;;;;;;;;;;;
2019/04/26 12:31:09;;;;;;;1.2;0.9;;;;;;;;;;;;;
2019/04/26 12:33:34;;;;;;;1;0.9;;;;;;;;;;;;;
2019/04/26 12:35:59;;;;;;;2.4;1.3;;;;;;;;;;;;;
2019/04/26 12:38:25;;;;;;;1.5;1.4;;;;;;;;;;;;;
2019/04/26 12:40:54;;;;;;;2.2;1.6;;;;;;;;;;;;;
2019/04/26 12:43:19;;;;;;;2.1;1.4;;;;;;;;;;;;;
2019/04/26 12:45:53;;;;;;;1.6;1.3;;;;;;;;;;;;;
2019/04/26 12:48:12;;;;;;;1.7;1.3;;;;;;;;;;;;;
2019/04/26 12:50:35;;;;;;;3.5;1.6;;;;;;;;;;;;;
2019/04/26 12:53:00;;;;;;;1.5;1.2;;;;;;;;;;;;;
2019/04/26 12:55:25;;;;;;;2.4;1.4;;;;;;;;;;;;;
2019/04/26 12:57:53;;;;;;;1.5;1.2;;;;;;;;;;;;;
2019/04/26 13:00:24;;;;;;;1.6;1.5;;;;;;;;;;;;;
2019/04/26 13:02:43;;;;;;;1.3;1.1;;;;;;;;;;;;;
2019/04/26 13:05:16;;;;;;;1.4;1.3;;;;;;;;;;;;;
2019/04/26 13:07:50;;;;;;;1.5;1;;;;;;;;;;;;;
2019/04/26 13:15:12;;;;;;;1.6;1.2;;;;;;;;;;;;;
2019/04/26 13:17:42;;;;;;;1.2;1.1;;;;;;;;;;;;;
2019/04/26 13:20:03;;;;;;;1.4;0.9;;;;;;;;;;;;;
2019/04/26 13:22:30;;;;;;;1.4;1;;;;;;;;;;;;;
2019/04/26 13:24:56;;;;;;;2;1;;;;;;;;;;;;;
2019/04/26 13:27:24;;;;;;;0.9;0.8;;;;;;;;;;;;;
2019/04/26 13:29:51;;;;;;;0.8;0.8;;;;;;;;;;;;;
2019/04/26 13:32:16;;;;;;;1.7;0.9;;;;;;;;;;;;;
2019/04/26 13:34:41;;;;;;;0.8;0.8;;;;;;;;;;;;;
2019/04/26 13:37:06;;;;;;;1;0.9;;;;;;;;;;;;;
2019/04/26 13:39:31;;;;;;;0.8;0.8;;;;;;;;;;;;;
2019/04/26 13:41:59;;;;;;;1.1;0.9;;;;;;;;;;;;;
2019/04/26 13:49:22;;;;;;;3;1.2;;;;;;;;;;;;;
2019/04/26 13:51:40;;;;;;;2.4;1.5;;;;;;;;;;;;;
2019/04/26 13:54:05;;;;;;;1.2;1.1;;;;;;;;;;;;;
2019/04/26 13:56:30;;;;;;;0.9;0.8;;;;;;;;;;;;;
2019/04/26 13:58:55;;;;;;;1;0.8;;;;;;;;;;;;;
2019/04/26 14:01:20;;;;;;;1.6;0.8;;;;;;;;;;;;;
2019/04/26 14:03:46;;;;;;;1.3;0.7;;;;;;;;;;;;;
2019/04/26 14:06:11;;;;;;;1.1;0.6;;;;;;;;;;;;;
2019/04/26 14:08:36;;;;;;;0.9;0.8;;;;;;;;;;;;;
2019/04/26 14:11:01;;;;;;;2.1;0.9;;;;;;;;;;;;;
2019/04/26 14:13:33;;;;;;;1;0.8;;;;;;;;;;;;;
2019/04/26 14:15:58;;;;;;;2;0.7;;;;;;;;;;;;;
2019/04/26 14:18:30;;;;;;;0.7;0.7;;;;;;;;;;;;;
2019/04/26 14:20:55;;;;;;;2.9;1;;;;;;;;;;;;;
2019/04/26 14:23:31;;;;;;;1.6;0.8;;;;;;;;;;;;;
2019/04/26 14:25:56;;;;;;;0.9;0.8;;;;;;;;;;;;;
2019/04/26 14:28:11;;;;;;;0.9;0.8;;;;;;;;;;;;;
2019/04/26 14:30:36;;;;;;;1.3;0.8;;;;;;;;;;;;;
2019/04/26 14:33:08;;;;;;;1.7;0.9;;;;;;;;;;;;;
2019/04/26 14:35:53;;;;;;;0.9;0.8;;;;;;;;;;;;;
2019/04/26 14:38:18;;;;;;;1.9;0.8;;;;;;;;;;;;;
2019/04/26 14:40:43;;;;;;;1.1;0.8;;;;;;;;;;;;;
2019/04/26 14:43:08;;;;;;;1;0.9;;;;;;;;;;;;;
2019/04/26 14:45:33;;;;;;;1.2;1.1;;;;;;;;;;;;;
2019/04/26 14:47:58;;;;;;;2;1.3;;;;;;;;;;;;;
2019/04/26 14:50:24;;;;;;;1.3;1.2;;;;;;;;;;;;;
2019/04/26 14:52:49;;;;;;;1.6;1.2;;;;;;;;;;;;;
2019/04/26 14:55:14;;;;;;;1.5;1.1;;;;;;;;;;;;;
2019/04/26 14:57:39;;;;;;;1.9;1.2;;;;;;;;;;;;;
2019/04/26 15:00:05;;;;;;;1.4;1.1;;;;;;;;;;;;;
2019/04/26 15:02:39;;;;;;;1.4;1.2;;;;;;;;;;;;;
2019/04/26 15:05:04;;;;;;;1.1;1;;;;;;;;;;;;;
2019/04/26 15:07:20;;;;;;;1.4;1.2;;;;;;;;;;;;;
2019/04/26 15:09:45;;;;;;;1.1;1;;;;;;;;;;;;;
2019/04/26 15:12:11;;;;;;;1.6;0.8;;;;;;;;;;;;;
2019/04/26 15:14:36;;;;;;;1.6;1;;;;;;;;;;;;;
2019/04/26 15:17:01;;;;;;;1.1;1;;;;;;;;;;;;;
2019/04/26 15:19:26;;;;;;;1.2;1.1;;;;;;;;;;;;;
2019/04/26 15:21:52;;;;;;;1.2;1.1;;;;;;;;;;;;;
2019/04/26 15:24:17;;;;;;;1.1;1;;;;;;;;;;;;;
2019/04/26 15:26:42;;;;;;;1.1;1;;;;;;;;;;;;;
2019/04/26 15:29:07;;;;;;;1.8;1.1;;;;;;;;;;;;;
2019/04/26 15:31:32;;;;;;;1;1;;;;;;;;;;;;;
2019/04/26 15:33:57;;;;;;;1.6;1;;;;;;;;;;;;;
2019/04/26 15:36:22;;;;;;;1;1;;;;;;;;;;;;;
2019/04/26 15:38:47;;;;;;;1.7;1.3;;;;;;;;;;;;;
2019/04/26 15:44:04;;;;;;;1.4;1.3;;;;;;;;;;;;;
2019/04/26 15:46:19;;;;;;;1.3;1.2;;;;;;;;;;;;;
2019/04/26 15:48:45;;;;;;;1.4;1.3;;;;;;;;;;;;;
2019/04/26 15:51:04;;;;;;;1.4;1.3;;;;;;;;;;;;;
2019/04/26 15:53:30;;;;;;;1.3;1.2;;;;;;;;;;;;;
2019/04/26 15:55:55;;;;;;;1.4;1.3;;;;;;;;;;;;;
2019/04/26 15:58:22;;;;;;;1;1;;;;;;;;;;;;;
2019/04/26 16:00:47;;;;;;;1.3;1.2;;;;;;;;;;;;;
2019/04/26 16:03:12;;;;;;;1.2;1.1;;;;;;;;;;;;;
2019/04/26 16:05:37;;;;;;;1.4;1.3;;;;;;;;;;;;;
2019/04/26 16:08:03;;;;;;;1.6;1.5;;;;;;;;;;;;;
2019/04/26 16:10:28;;;;;;;1.5;1.4;;;;;;;;;;;;;
2019/04/26 16:12:54;;;;;;;1.5;1.4;;;;;;;;;;;;;
2019/04/26 16:15:19;;;;;;;1.5;1.4;;;;;;;;;;;;;
2019/04/26 16:17:45;;;;;;;1.5;1.4;;;;;;;;;;;;;
2019/04/26 16:20:10;;;;;;;1.5;1.4;;;;;;;;;;;;;
2019/04/26 16:22:35;;;;;;;1.4;1.3;;;;;;;;;;;;;
2019/04/26 16:25:03;;;;;;;1.7;1.6;;;;;;;;;;;;;
2019/04/26 16:27:27;;;;;;;1.7;1.6;;;;;;;;;;;;;
2019/04/26 16:32:33;;;;;;;1.4;1.3;;;;;;;;;;;;;
2019/04/26 16:34:52;;;;;;;1.6;1.5;;;;;;;;;;;;;
2019/04/26 16:37:18;;;;;;;1.9;1.6;;;;;;;;;;;;;
2019/04/26 16:39:43;;;;;;;1.4;1.3;;;;;;;;;;;;;
2019/04/26 16:42:08;;;;;;;1.5;1.4;;;;;;;;;;;;;
2019/04/26 16:44:33;;;;;;;1.3;1.2;;;;;;;;;;;;;
2019/04/26 16:46:59;;;;;;;1.5;1.4;;;;;;;;;;;;;
2019/04/26 16:49:24;;;;;;;1.7;1.6;;;;;;;;;;;;;
2019/04/26 16:51:49;;;;;;;2.2;2.1;;;;;;;;;;;;;
2019/04/26 16:54:14;;;;;;;2.3;2.1;;;;;;;;;;;;;
2019/04/26 16:56:39;;;;;;;2.3;2.1;;;;;;;;;;;;;
2019/04/26 16:59:04;;;;;;;2.2;2.1;;;;;;;;;;;;;
2019/04/26 17:01:29;;;;;;;2.1;1.9;;;;;;;;;;;;;
2019/04/26 17:03:56;;;;;;;2;1.9;;;;;;;;;;;;;
2019/04/26 17:06:21;;;;;;;1.9;1.8;;;;;;;;;;;;;
2019/04/26 17:08:46;;;;;;;2.1;2;;;;;;;;;;;;;
2019/04/26 17:11:11;;;;;;;1.9;1.8;;;;;;;;;;;;;
2019/04/26 17:13:36;;;;;;;2.2;2;;;;;;;;;;;;;
2019/04/26 17:16:01;;;;;;;2.1;1.9;;;;;;;;;;;;;
2019/04/26 17:18:27;;;;;;;2.4;2.2;;;;;;;;;;;;;
2019/04/26 17:20:52;;;;;;;2.4;2.1;;;;;;;;;;;;;
2019/04/26 17:25:54;;;;;;;2.4;2.2;;;;;;;;;;;;;
2019/04/26 17:28:07;;;;;;;2.2;2.1;;;;;;;;;;;;;
2019/04/26 17:30:32;;;;;;;2.1;2;;;;;;;;;;;;;
2019/04/26 17:32:57;;;;;;;2.1;2;;;;;;;;;;;;;
2019/04/26 17:35:22;;;;;;;2.4;2.2;;;;;;;;;;;;;
2019/04/26 17:37:47;;;;;;;2.2;2;;;;;;;;;;;;;
2019/04/26 17:40:15;;;;;;;2.1;1.9;;;;;;;;;;;;;
2019/04/26 17:42:39;;;;;;;2;1.9;;;;;;;;;;;;;
2019/04/26 17:45:08;;;;;;;2.1;2;;;;;;;;;;;;;
2019/04/26 17:47:33;;;;;;;2.3;2.1;;;;;;;;;;;;;
2019/04/26 17:49:58;;;;;;;2.3;2.1;;;;;;;;;;;;;
2019/04/26 17:52:24;;;;;;;2.7;2.3;;;;;;;;;;;;;
2019/04/26 17:54:49;;;;;;;2.1;2;;;;;;;;;;;;;
2019/04/26 17:57:14;;;;;;;2.2;2;;;;;;;;;;;;;
2019/04/26 17:59:40;;;;;;;2.2;2.1;;;;;;;;;;;;;
2019/04/26 18:02:05;;;;;;;2.5;2.3;;;;;;;;;;;;;
2019/04/26 18:04:30;;;;;;;2.7;2.5;;;;;;;;;;;;;
2019/04/26 18:06:56;;;;;;;2.3;2.1;;;;;;;;;;;;;
2019/04/26 18:09:22;;;;;;;3;2.3;;;;;;;;;;;;;
2019/04/26 18:11:47;;;;;;;2.3;2.1;;;;;;;;;;;;;
2019/04/26 18:14:12;;;;;;;2.5;2.3;;;;;;;;;;;;;
2019/04/26 18:16:56;;;;;;;3.1;2.5;;;;;;;;;;;;;
2019/04/26 18:23:57;;;;;;;2.7;2.5;;;;;;;;;;;;;
2019/04/26 18:26:24;;;;;;;2.8;2.6;;;;;;;;;;;;;
2019/04/26 18:28:52;;;;;;;2.9;2.7;;;;;;;;;;;;;
2019/04/26 18:31:17;;;;;;;2.7;2.5;;;;;;;;;;;;;
2019/04/26 18:33:42;;;;;;;3.5;3.3;;;;;;;;;;;;;
2019/04/26 18:36:09;;;;;;;2.7;2.5;;;;;;;;;;;;;
2019/04/26 18:38:34;;;;;;;2.9;2.7;;;;;;;;;;;;;
2019/04/26 18:40:59;;;;;;;2.7;2.5;;;;;;;;;;;;;
2019/04/26 18:43:24;;;;;;;3.1;2.9;;;;;;;;;;;;;
2019/04/26 18:45:52;;;;;;;3.4;3.1;;;;;;;;;;;;;
2019/04/26 18:48:19;;;;;;;3.3;3.1;;;;;;;;;;;;;
2019/04/26 18:50:44;;;;;;;2.9;2.7;;;;;;;;;;;;;
2019/04/26 18:55:34;;;;;;;3.5;2.9;;;;;;;;;;;;;
2019/04/26 18:57:59;;;;;;;3.2;3;;;;;;;;;;;;;
2019/04/26 19:00:38;;;;;;;3.1;2.9;;;;;;;;;;;;;
2019/04/26 19:02:55;;;;;;;3.4;3.1;;;;;;;;;;;;;